Time;durP1;ratioP1;P1;durP2;ratioP2;P2;SDS_P1;SDS_P2;PMS_P1;PMS_P2;Temp;Humidity;BMP_temperature;BMP_pressure;BME280_temperature;BME280_humidity;BME280_pressure;Samples;Min_cycle;Max_cycle;Signal;HPM_P1;HPM_P2
2021/12/21 00:00:12;;;;;;;;;;;-2.10;99.90;;;;;;5093547;28;19920;-71
2021/12/21 00:02:40;;;;;;;;;;;-2.20;99.90;;;;;;5105369;28;19920;-72
2021/12/21 00:05:08;;;;;;;;;;;-2.20;99.90;;;;;;5104229;28;19927;-72
2021/12/21 00:07:35;;;;;;;;;;;-2.20;99.90;;;;;;5115538;28;19941;-71
2021/12/21 00:10:01;;;;;;;;;;;-2.20;99.90;;;;;;5125538;28;19982;-71
2021/12/21 00:12:31;;;;;;;;;;;-2.30;99.90;;;;;;5125199;28;20111;-70
2021/12/21 00:15:02;;;;;;;;;;;-2.30;99.90;;;;;;5104370;28;20085;-71
2021/12/21 00:20:27;;;;;;;;;;;-2.30;99.90;;;;;;5084219;28;19938;-71
2021/12/21 00:23:28;;;;;;;;;;;-2.30;99.90;;;;;;5084478;28;20230;-71
2021/12/21 00:25:55;;;;;;;;;;;-2.30;99.90;;;;;;5098856;28;20218;-72
2021/12/21 00:28:23;;;;;;;;;;;-2.30;99.90;;;;;;5115095;28;20088;-71
2021/12/21 00:30:50;;;;;;;;;;;-2.40;99.90;;;;;;5104831;28;19957;-71
2021/12/21 00:33:17;;;;;;;;;;;-2.40;99.90;;;;;;5104542;28;19920;-71
2021/12/21 00:35:45;;;;;;;;;;;-2.40;99.90;;;;;;5103312;28;19920;-71
2021/12/21 00:38:11;;;;;;;;;;;-2.40;99.90;;;;;;5108317;28;19920;-72
2021/12/21 00:40:38;;;;;;;;;;;-2.40;99.90;;;;;;5125047;28;20199;-70
2021/12/21 00:43:05;;;;;;;;;;;-2.40;99.90;;;;;;5125006;28;19919;-71
2021/12/21 00:45:31;;;;;;;;;;;-2.40;99.90;;;;;;5124149;28;19923;-70
2021/12/21 00:47:58;;;;;;;;;;;-2.40;99.90;;;;;;5122272;28;19920;-71
2021/12/21 00:50:24;;;;;;;;;;;-2.40;99.90;;;;;;5123005;28;19920;-71
2021/12/21 00:52:53;;;;;;;;;;;-2.40;99.90;;;;;;5124613;28;19986;-70
2021/12/21 00:55:21;;;;;;;;;;;-2.40;99.90;;;;;;5107982;28;20208;-72
2021/12/21 00:57:47;;;;;;;;;;;-2.50;99.90;;;;;;5124501;28;20189;-71
2021/12/21 01:00:16;;;;;;;;;;;-2.50;99.90;;;;;;5111282;28;19927;-71
2021/12/21 01:02:42;;;;;;;;;;;-2.50;99.90;;;;;;5104337;28;19924;-71
2021/12/21 01:05:17;;;;;;;;;;;-2.60;99.90;;;;;;5103518;28;19920;-71
2021/12/21 01:07:48;;;;;;;;;;;-2.60;99.90;;;;;;5089993;28;19925;-71
2021/12/21 01:13:12;;;;;;;;;;;-2.60;99.90;;;;;;5104155;28;19965;-71
2021/12/21 01:15:55;;;;;;;;;;;-2.60;99.90;;;;;;5103528;28;19927;-73
2021/12/21 01:18:25;;;;;;;;;;;-2.70;99.90;;;;;;5109153;28;19951;-71
2021/12/21 01:21:03;;;;;;;;;;;-2.70;99.90;;;;;;5113388;28;19924;-71
2021/12/21 01:23:50;;;;;;;;;;;-2.70;99.90;;;;;;5103695;28;19924;-71
2021/12/21 01:26:25;;;;;;;;;;;-2.60;99.90;;;;;;5112950;28;19920;-72
2021/12/21 01:28:58;;;;;;;;;;;-2.70;99.90;;;;;;5124545;28;19920;-71
2021/12/21 01:31:32;;;;;;;;;;;-2.70;99.90;;;;;;5112534;28;20238;-71
2021/12/21 01:34:14;;;;;;;;;;;-2.70;99.90;;;;;;5103388;28;19920;-72
2021/12/21 01:36:47;;;;;;;;;;;-2.70;99.90;;;;;;5103101;28;20190;-71
2021/12/21 01:39:38;;;;;;;;;;;-2.70;99.90;;;;;;5105642;28;19920;-71
2021/12/21 01:42:15;;;;;;;;;;;-2.70;99.90;;;;;;5107691;28;20115;-71
2021/12/21 01:49:34;;;;;;;;;;;-2.70;99.90;;;;;;5107284;28;19920;-71
2021/12/21 01:50:15;;;;;;;;;;;-2.80;99.90;;;;;;5128026;28;19922;-70
2021/12/21 01:52:43;;;;;;;;;;;-2.80;99.90;;;;;;5116790;28;19931;-70
2021/12/21 01:55:10;;;;;;;;;;;-2.80;99.90;;;;;;5106741;28;19920;-71
2021/12/21 01:57:38;;;;;;;;;;;-2.80;99.90;;;;;;5117009;28;20216;-70
2021/12/21 02:00:05;;;;;;;;;;;-2.80;99.90;;;;;;5128044;28;19923;-70
2021/12/21 02:02:31;;;;;;;;;;;-2.80;99.90;;;;;;5114671;28;20196;-71
2021/12/21 02:04:58;;;;;;;;;;;-2.80;99.90;;;;;;5121677;28;19920;-70
2021/12/21 02:07:25;;;;;;;;;;;-2.90;99.90;;;;;;5127656;28;19919;-70
2021/12/21 02:09:51;;;;;;;;;;;-2.90;99.90;;;;;;5121123;28;19920;-70
2021/12/21 02:12:19;;;;;;;;;;;-2.90;99.90;;;;;;5107135;28;20230;-71
2021/12/21 02:14:52;;;;;;;;;;;-2.90;99.90;;;;;;5106718;28;19942;-70
2021/12/21 02:17:43;;;;;;;;;;;-2.90;99.90;;;;;;5114875;28;19926;-70
2021/12/21 02:20:19;;;;;;;;;;;-2.90;99.90;;;;;;5108644;28;19920;-70
2021/12/21 02:22:50;;;;;;;;;;;-2.90;99.90;;;;;;5094258;28;19921;-70
2021/12/21 02:25:38;;;;;;;;;;;-3.00;99.90;;;;;;5086162;28;19969;-70
2021/12/21 02:28:23;;;;;;;;;;;-3.00;99.90;;;;;;5109073;28;19961;-70
2021/12/21 02:30:53;;;;;;;;;;;-3.00;99.90;;;;;;5127580;28;19942;-71
2021/12/21 02:33:20;;;;;;;;;;;-3.00;99.90;;;;;;5120900;28;19920;-70
2021/12/21 02:36:13;;;;;;;;;;;-3.00;99.90;;;;;;5125025;28;19968;-71
2021/12/21 02:38:41;;;;;;;;;;;-3.00;99.90;;;;;;5115894;28;19920;-70
2021/12/21 02:41:08;;;;;;;;;;;-3.00;99.90;;;;;;5127420;28;20118;-71
2021/12/21 02:43:36;;;;;;;;;;;-3.00;99.90;;;;;;5117973;28;19920;-70
2021/12/21 02:46:03;;;;;;;;;;;-3.00;99.90;;;;;;5113519;28;19919;-70
2021/12/21 02:48:29;;;;;;;;;;;-3.10;99.90;;;;;;5125998;28;19920;-71
2021/12/21 02:50:56;;;;;;;;;;;-3.10;99.90;;;;;;5125933;28;19926;-71
2021/12/21 02:53:22;;;;;;;;;;;-3.10;99.90;;;;;;5127071;28;20145;-70
2021/12/21 02:55:50;;;;;;;;;;;-3.10;99.90;;;;;;5122597;28;19926;-70
2021/12/21 02:58:17;;;;;;;;;;;-3.00;99.90;;;;;;5105776;28;19927;-70
2021/12/21 03:00:44;;;;;;;;;;;-3.10;99.90;;;;;;5126954;28;19931;-71
2021/12/21 03:03:13;;;;;;;;;;;-3.10;99.90;;;;;;5126717;28;19919;-70
2021/12/21 03:05:45;;;;;;;;;;;-3.10;99.90;;;;;;5126182;28;19986;-70
2021/12/21 03:08:19;;;;;;;;;;;-3.10;99.90;;;;;;5108567;28;19935;-71
2021/12/21 03:11:00;;;;;;;;;;;-3.10;99.90;;;;;;5123182;28;19982;-71
2021/12/21 03:16:13;;;;;;;;;;;-3.10;99.90;;;;;;5126351;28;20282;-70
2021/12/21 03:18:40;;;;;;;;;;;-3.10;99.90;;;;;;5126159;28;19919;-71
2021/12/21 03:21:06;;;;;;;;;;;-3.10;99.90;;;;;;5110358;28;19926;-71
2021/12/21 03:23:33;;;;;;;;;;;-3.10;99.90;;;;;;5105099;28;19920;-71
2021/12/21 03:25:59;;;;;;;;;;;-3.20;99.90;;;;;;5109606;28;19920;-70
2021/12/21 03:28:26;;;;;;;;;;;-3.10;99.90;;;;;;5126333;28;19926;-72
2021/12/21 03:30:54;;;;;;;;;;;-3.20;99.90;;;;;;5115245;28;19961;-71
2021/12/21 03:33:20;;;;;;;;;;;-3.20;99.90;;;;;;5104907;28;20212;-70
2021/12/21 03:35:47;;;;;;;;;;;-3.20;99.90;;;;;;5105062;28;19920;-70
2021/12/21 03:38:15;;;;;;;;;;;-3.20;99.90;;;;;;5105794;28;19924;-70
2021/12/21 03:40:41;;;;;;;;;;;-3.20;99.90;;;;;;5104786;28;19951;-70
2021/12/21 03:43:10;;;;;;;;;;;-3.20;99.90;;;;;;5085312;28;19926;-71
2021/12/21 03:45:40;;;;;;;;;;;-3.20;99.90;;;;;;5084271;28;19954;-70
2021/12/21 03:48:12;;;;;;;;;;;-3.20;99.90;;;;;;5085084;28;20139;-71
2021/12/21 03:50:39;;;;;;;;;;;-3.20;99.90;;;;;;5099568;28;19923;-71
2021/12/21 03:53:06;;;;;;;;;;;-3.20;99.90;;;;;;5105465;28;19920;-71
2021/12/21 03:55:32;;;;;;;;;;;-3.20;99.90;;;;;;5104475;28;19926;-71
2021/12/21 03:57:59;;;;;;;;;;;-3.20;99.90;;;;;;5101098;28;20107;-71
2021/12/21 04:00:27;;;;;;;;;;;-3.20;99.90;;;;;;5105394;28;19956;-71
2021/12/21 04:02:54;;;;;;;;;;;-3.20;99.90;;;;;;5104825;28;19927;-70
2021/12/21 04:05:22;;;;;;;;;;;-3.30;99.90;;;;;;5104535;28;19920;-70
2021/12/21 04:07:49;;;;;;;;;;;-3.30;99.90;;;;;;5104908;28;19943;-70
2021/12/21 04:10:15;;;;;;;;;;;-3.30;99.90;;;;;;5105007;28;19926;-71
2021/12/21 04:12:42;;;;;;;;;;;-3.30;99.90;;;;;;5114824;28;19920;-71
2021/12/21 04:15:09;;;;;;;;;;;-3.30;99.90;;;;;;5124797;28;19919;-71
2021/12/21 04:17:35;;;;;;;;;;;-3.40;99.90;;;;;;5112752;28;19926;-71
2021/12/21 04:20:02;;;;;;;;;;;-3.30;99.90;;;;;;5106765;28;19983;-71
2021/12/21 04:22:30;;;;;;;;;;;-3.30;99.90;;;;;;5120755;28;20212;-70
2021/12/21 04:27:33;;;;;;;;;;;-3.30;99.90;;;;;;5143498;27;19926;-68
2021/12/21 04:30:00;;;;;;;;;;;-3.30;99.90;;;;;;5145443;27;19926;-67
2021/12/21 04:32:26;;;;;;;;;;;-3.30;99.90;;;;;;5145281;27;19932;-68
2021/12/21 04:34:53;;;;;;;;;;;-3.30;99.90;;;;;;5124337;28;19923;-68
2021/12/21 04:37:22;;;;;;;;;;;-3.40;99.90;;;;;;5124328;28;19920;-68
2021/12/21 04:39:57;;;;;;;;;;;-3.40;99.90;;;;;;5124567;28;19987;-68
2021/12/21 04:42:23;;;;;;;;;;;-3.40;99.90;;;;;;5124728;28;20013;-68
2021/12/21 04:44:50;;;;;;;;;;;-3.50;99.90;;;;;;5123958;28;19986;-68
2021/12/21 04:47:16;;;;;;;;;;;-3.50;99.90;;;;;;5123804;28;19926;-68
2021/12/21 04:49:43;;;;;;;;;;;-3.50;99.90;;;;;;5124501;28;19926;-68
2021/12/21 04:52:10;;;;;;;;;;;-3.50;99.90;;;;;;5123986;28;20111;-68
2021/12/21 04:54:36;;;;;;;;;;;-3.50;99.90;;;;;;5123315;28;19926;-68
2021/12/21 04:57:05;;;;;;;;;;;-3.60;99.90;;;;;;5122268;28;19987;-68
2021/12/21 04:59:31;;;;;;;;;;;-3.60;99.90;;;;;;5124514;28;19920;-68
2021/12/21 05:01:58;;;;;;;;;;;-3.60;99.90;;;;;;5124430;28;19919;-67
2021/12/21 05:04:24;;;;;;;;;;;-3.60;99.90;;;;;;5123549;28;19919;-69
2021/12/21 05:06:51;;;;;;;;;;;-3.60;99.90;;;;;;5123862;28;19920;-68
2021/12/21 05:09:25;;;;;;;;;;;-3.60;99.90;;;;;;5124164;28;19920;-68
2021/12/21 05:11:53;;;;;;;;;;;-3.50;99.90;;;;;;5123883;28;19926;-68
2021/12/21 05:14:21;;;;;;;;;;;-3.60;99.90;;;;;;5122809;28;19927;-69
2021/12/21 05:16:48;;;;;;;;;;;-3.60;99.90;;;;;;5123753;28;19920;-68
2021/12/21 05:19:14;;;;;;;;;;;-3.60;99.90;;;;;;5123786;28;19919;-68
2021/12/21 05:21:41;;;;;;;;;;;-3.60;99.90;;;;;;5124041;28;19923;-68
2021/12/21 05:24:08;;;;;;;;;;;-3.60;99.90;;;;;;5102778;28;19920;-68
2021/12/21 05:26:34;;;;;;;;;;;-3.60;99.90;;;;;;5117040;28;19920;-68
2021/12/21 05:29:01;;;;;;;;;;;-3.60;99.90;;;;;;5103795;28;19920;-68
2021/12/21 05:31:29;;;;;;;;;;;-3.60;99.90;;;;;;5103823;28;20130;-69
2021/12/21 05:33:55;;;;;;;;;;;-3.60;99.90;;;;;;5103067;28;19927;-69
2021/12/21 05:36:22;;;;;;;;;;;-3.60;99.90;;;;;;5113219;28;19927;-69
2021/12/21 05:38:52;;;;;;;;;;;-3.60;99.90;;;;;;5122292;28;19991;-70
2021/12/21 05:41:26;;;;;;;;;;;-3.60;99.90;;;;;;5124175;28;19987;-69
2021/12/21 05:43:52;;;;;;;;;;;-3.60;99.90;;;;;;5123421;28;19928;-69
2021/12/21 05:46:19;;;;;;;;;;;-3.60;99.90;;;;;;5123483;28;19965;-69
2021/12/21 05:48:48;;;;;;;;;;;-3.60;99.90;;;;;;5123997;28;19926;-69
2021/12/21 05:51:14;;;;;;;;;;;-3.60;99.90;;;;;;5123051;28;19987;-69
2021/12/21 05:53:41;;;;;;;;;;;-3.60;99.90;;;;;;5123449;28;19919;-69
2021/12/21 05:56:08;;;;;;;;;;;-3.70;99.90;;;;;;5123018;28;20207;-69
2021/12/21 05:58:34;;;;;;;;;;;-3.70;99.90;;;;;;5123619;28;19920;-69
2021/12/21 06:01:02;;;;;;;;;;;-3.70;99.90;;;;;;5122674;28;19926;-69
2021/12/21 06:03:29;;;;;;;;;;;-3.70;99.90;;;;;;5103076;28;19920;-69
2021/12/21 06:05:57;;;;;;;;;;;-3.70;99.90;;;;;;5103062;28;20127;-69
2021/12/21 06:08:24;;;;;;;;;;;-3.70;99.90;;;;;;5118091;28;20237;-69
2021/12/21 06:10:53;;;;;;;;;;;-3.70;99.90;;;;;;5123470;28;19919;-69
2021/12/21 06:16:25;;;;;;;;;;;-3.70;99.90;;;;;;5123273;28;19996;-67
2021/12/21 06:27:18;;;;;;;;;;;-3.80;99.90;;;;;;5125964;28;19923;-68
2021/12/21 06:29:45;;;;;;;;;;;-3.80;99.90;;;;;;5111646;28;19919;-68
2021/12/21 06:32:12;;;;;;;;;;;-3.80;99.90;;;;;;5124898;28;19926;-68
2021/12/21 06:34:38;;;;;;;;;;;-3.80;99.90;;;;;;5126501;28;19927;-69
2021/12/21 06:37:07;;;;;;;;;;;-3.90;99.90;;;;;;5123426;28;20128;-72
2021/12/21 06:39:34;;;;;;;;;;;-3.90;99.90;;;;;;5125949;28;20207;-70
2021/12/21 06:42:01;;;;;;;;;;;-3.90;99.90;;;;;;5126101;28;20214;-70
2021/12/21 06:44:28;;;;;;;;;;;-3.90;99.90;;;;;;5126052;28;19919;-70
2021/12/21 06:47:09;;;;;;;;;;;-3.90;99.90;;;;;;5126532;28;19919;-70
2021/12/21 06:52:21;;;;;;;;;;;-3.80;99.90;;;;;;5126857;28;20159;-70
2021/12/21 06:54:48;;;;;;;;;;;-3.80;99.90;;;;;;5126262;28;19919;-70
2021/12/21 06:57:15;;;;;;;;;;;-3.80;99.90;;;;;;5122130;28;19920;-70
2021/12/21 06:59:41;;;;;;;;;;;-3.90;99.90;;;;;;5126657;28;19923;-69
2021/12/21 07:02:09;;;;;;;;;;;-3.80;99.90;;;;;;5116414;28;19924;-70
2021/12/21 07:04:35;;;;;;;;;;;-3.90;99.90;;;;;;5116384;28;20415;-69
2021/12/21 07:07:02;;;;;;;;;;;-3.90;99.90;;;;;;5125505;28;19943;-70
2021/12/21 07:09:35;;;;;;;;;;;-3.90;99.90;;;;;;5125656;28;20031;-70
2021/12/21 07:12:20;;;;;;;;;;;-3.90;99.90;;;;;;5126357;28;19961;-70
2021/12/21 07:20:15;;;;;;;;;;;-3.90;99.90;;;;;;5117134;28;19923;-70
2021/12/21 07:22:41;;;;;;;;;;;-3.90;99.90;;;;;;5126299;28;19942;-70
2021/12/21 07:25:10;;;;;;;;;;;-3.90;99.90;;;;;;5125144;28;19919;-70
2021/12/21 07:27:36;;;;;;;;;;;-3.90;99.90;;;;;;5125379;28;19942;-70
2021/12/21 07:30:03;;;;;;;;;;;-3.90;99.90;;;;;;5125747;28;19919;-71
2021/12/21 07:32:30;;;;;;;;;;;-3.90;99.90;;;;;;5125163;28;19926;-70
2021/12/21 07:34:56;;;;;;;;;;;-3.90;99.90;;;;;;5125028;28;19946;-70
2021/12/21 07:37:25;;;;;;;;;;;-3.80;99.90;;;;;;5124083;28;19983;-71
2021/12/21 07:39:51;;;;;;;;;;;-3.90;99.90;;;;;;5124924;28;19983;-71
2021/12/21 07:42:19;;;;;;;;;;;-3.90;99.90;;;;;;5125257;28;19927;-70
2021/12/21 07:44:46;;;;;;;;;;;-3.90;99.90;;;;;;5125079;28;20207;-70
2021/12/21 07:47:13;;;;;;;;;;;-3.90;99.90;;;;;;5124614;28;19919;-70
2021/12/21 07:49:39;;;;;;;;;;;-3.90;99.90;;;;;;5125786;28;19920;-70
2021/12/21 07:52:07;;;;;;;;;;;-3.90;99.90;;;;;;5124881;28;19927;-70
2021/12/21 07:54:34;;;;;;;;;;;-3.90;99.90;;;;;;5125294;28;19920;-70
2021/12/21 07:57:00;;;;;;;;;;;-3.90;99.90;;;;;;5124741;28;19920;-70
2021/12/21 07:59:28;;;;;;;;;;;-3.90;99.90;;;;;;5124372;28;19919;-70
2021/12/21 08:01:55;;;;;;;;;;;-3.90;99.90;;;;;;5125721;28;19920;-70
2021/12/21 08:04:26;;;;;;;;;;;-3.90;99.90;;;;;;5124962;28;19926;-70
2021/12/21 08:06:54;;;;;;;;;;;-3.90;99.90;;;;;;5124905;28;19919;-70
2021/12/21 08:09:21;;;;;;;;;;;-3.90;99.90;;;;;;5122985;28;20092;-70
2021/12/21 08:14:36;;;;;;;;;;;-3.90;99.90;;;;;;5124659;28;20225;-70
2021/12/21 08:17:03;;;;;;;;;;;-3.90;99.90;;;;;;5124039;28;19927;-70
2021/12/21 08:19:29;;;;;;;;;;;-3.90;99.90;;;;;;5104553;28;19927;-69
2021/12/21 08:21:56;;;;;;;;;;;-3.80;99.90;;;;;;5117184;28;20228;-70
2021/12/21 08:24:22;;;;;;;;;;;-3.80;99.90;;;;;;5124080;28;20242;-70
2021/12/21 08:26:49;;;;;;;;;;;-3.80;99.90;;;;;;5124494;28;19920;-70
2021/12/21 08:29:15;;;;;;;;;;;-3.70;99.90;;;;;;5123269;28;19920;-70
2021/12/21 08:31:43;;;;;;;;;;;-3.70;99.90;;;;;;5125070;28;19955;-70
2021/12/21 08:34:11;;;;;;;;;;;-3.60;99.90;;;;;;5124488;28;20315;-70
2021/12/21 08:36:38;;;;;;;;;;;-3.60;99.90;;;;;;5124694;28;19920;-71
2021/12/21 08:39:06;;;;;;;;;;;-3.50;99.90;;;;;;5123698;28;19927;-71
2021/12/21 08:41:38;;;;;;;;;;;-3.50;99.90;;;;;;5123008;28;19958;-70
2021/12/21 08:44:05;;;;;;;;;;;-3.50;99.90;;;;;;5124241;28;19920;-70
2021/12/21 08:46:32;;;;;;;;;;;-3.50;99.90;;;;;;5123417;28;19987;-70
2021/12/21 08:49:00;;;;;;;;;;;-3.50;99.90;;;;;;5123219;28;19920;-71
2021/12/21 08:51:26;;;;;;;;;;;-3.50;99.90;;;;;;5124504;28;19928;-71
2021/12/21 08:53:53;;;;;;;;;;;-3.50;99.90;;;;;;5124123;28;19926;-70
2021/12/21 08:56:19;;;;;;;;;;;-3.40;99.90;;;;;;5124194;28;19919;-70
2021/12/21 08:58:46;;;;;;;;;;;-3.40;99.90;;;;;;5124424;28;19926;-70
2021/12/21 09:01:12;;;;;;;;;;;-3.30;99.90;;;;;;5123138;28;19924;-69
2021/12/21 09:03:39;;;;;;;;;;;-3.30;99.90;;;;;;5124116;28;19947;-69
2021/12/21 09:06:07;;;;;;;;;;;-3.20;99.90;;;;;;5123422;28;20223;-70
2021/12/21 09:08:34;;;;;;;;;;;-3.20;99.90;;;;;;5123727;28;19919;-69
2021/12/21 09:11:06;;;;;;;;;;;-3.10;99.90;;;;;;5117514;28;19926;-69
2021/12/21 09:13:33;;;;;;;;;;;-3.10;99.90;;;;;;5122323;28;19984;-69
2021/12/21 09:16:00;;;;;;;;;;;-3.00;99.90;;;;;;5123665;28;20212;-69
2021/12/21 09:18:26;;;;;;;;;;;-3.00;99.90;;;;;;5124115;28;19927;-68
2021/12/21 09:20:53;;;;;;;;;;;-2.90;99.90;;;;;;5108874;28;19927;-69
2021/12/21 09:23:21;;;;;;;;;;;-2.90;99.90;;;;;;5124109;28;20115;-70
2021/12/21 09:25:48;;;;;;;;;;;-2.80;99.90;;;;;;5123516;28;19919;-69
2021/12/21 09:28:14;;;;;;;;;;;-2.80;99.90;;;;;;5121177;28;19926;-69
2021/12/21 09:30:41;;;;;;;;;;;-2.70;99.90;;;;;;5124183;28;19955;-70
2021/12/21 09:33:07;;;;;;;;;;;-2.60;99.90;;;;;;5124279;28;19926;-69
2021/12/21 09:35:34;;;;;;;;;;;-2.60;99.90;;;;;;5123304;28;19919;-69
2021/12/21 09:38:01;;;;;;;;;;;-2.50;99.90;;;;;;5122137;28;19920;-69
2021/12/21 09:40:29;;;;;;;;;;;-2.40;99.90;;;;;;5123052;28;20211;-68
2021/12/21 09:42:56;;;;;;;;;;;-2.40;99.90;;;;;;5124185;28;19927;-69
2021/12/21 09:45:23;;;;;;;;;;;-2.30;99.90;;;;;;5114659;28;19923;-69
2021/12/21 09:47:50;;;;;;;;;;;-2.30;99.90;;;;;;5114205;28;19927;-69
2021/12/21 09:50:17;;;;;;;;;;;-2.20;99.90;;;;;;5124227;28;19994;-69
2021/12/21 09:52:44;;;;;;;;;;;-2.20;99.90;;;;;;5123899;28;20229;-69
2021/12/21 09:55:12;;;;;;;;;;;-2.10;99.90;;;;;;5123175;28;19927;-69
2021/12/21 09:57:40;;;;;;;;;;;-1.90;99.90;;;;;;5122702;28;19920;-69
2021/12/21 10:00:08;;;;;;;;;;;-1.80;99.90;;;;;;5125140;28;19920;-69
2021/12/21 10:02:35;;;;;;;;;;;-1.70;99.90;;;;;;5127779;28;19920;-69
2021/12/21 10:05:04;;;;;;;;;;;-1.60;99.90;;;;;;5127243;28;19920;-69
2021/12/21 10:07:31;;;;;;;;;;;-1.50;99.90;;;;;;5127275;28;19934;-69
2021/12/21 10:10:06;;;;;;;;;;;-1.50;99.90;;;;;;5126677;28;19924;-69
2021/12/21 10:12:34;;;;;;;;;;;-1.40;99.90;;;;;;5127822;28;20271;-69
2021/12/21 10:15:04;;;;;;;;;;;-1.30;99.90;;;;;;5126377;28;19923;-69
2021/12/21 10:17:33;;;;;;;;;;;-1.30;99.90;;;;;;5126223;28;19923;-69
2021/12/21 10:20:00;;;;;;;;;;;-1.20;99.90;;;;;;5126662;28;19927;-69
2021/12/21 10:22:27;;;;;;;;;;;-1.10;99.90;;;;;;5126694;28;19926;-69
2021/12/21 10:24:54;;;;;;;;;;;-1.10;99.90;;;;;;5121386;28;19920;-68
2021/12/21 10:27:22;;;;;;;;;;;-1.00;99.90;;;;;;5126261;28;19994;-69
2021/12/21 10:29:50;;;;;;;;;;;-0.80;99.90;;;;;;5126360;28;19932;-69
2021/12/21 10:32:19;;;;;;;;;;;-0.70;99.90;;;;;;5126959;28;19942;-69
2021/12/21 10:34:53;;;;;;;;;;;-0.60;99.90;;;;;;5125855;28;19926;-68
2021/12/21 10:37:27;;;;;;;;;;;-0.40;99.90;;;;;;5125838;28;19920;-69
2021/12/21 10:40:11;;;;;;;;;;;-0.20;99.90;;;;;;5126529;28;19945;-69
2021/12/21 10:42:45;;;;;;;;;;;0.00;99.90;;;;;;5126178;28;19927;-69
2021/12/21 10:45:12;;;;;;;;;;;0.20;99.90;;;;;;5126003;28;20068;-68
2021/12/21 10:47:43;;;;;;;;;;;0.40;99.90;;;;;;5127006;28;19920;-68
2021/12/21 10:50:09;;;;;;;;;;;0.60;99.90;;;;;;5126725;28;19927;-69
2021/12/21 10:52:36;;;;;;;;;;;0.80;99.90;;;;;;5126501;28;20212;-69
2021/12/21 10:55:05;;;;;;;;;;;1.00;99.90;;;;;;5125466;28;19920;-68
2021/12/21 10:57:33;;;;;;;;;;;1.20;99.90;;;;;;5106110;28;19927;-68
2021/12/21 11:00:00;;;;;;;;;;;1.30;99.90;;;;;;5106359;28;19942;-69
2021/12/21 11:02:30;;;;;;;;;;;1.50;99.90;;;;;;5105955;28;19920;-68
2021/12/21 11:05:01;;;;;;;;;;;1.60;99.90;;;;;;5105570;28;20138;-68
2021/12/21 11:07:32;;;;;;;;;;;1.70;99.90;;;;;;5106115;28;20096;-69
2021/12/21 11:10:00;;;;;;;;;;;1.80;99.90;;;;;;5105852;28;20216;-68
2021/12/21 11:12:28;;;;;;;;;;;1.90;99.90;;;;;;5105037;28;20116;-68
2021/12/21 11:14:57;;;;;;;;;;;1.90;99.90;;;;;;5105284;28;20176;-68
2021/12/21 11:17:24;;;;;;;;;;;2.10;99.90;;;;;;5105851;28;20158;-69
2021/12/21 11:19:51;;;;;;;;;;;2.20;99.90;;;;;;5117186;28;19926;-69
2021/12/21 11:22:19;;;;;;;;;;;2.30;99.90;;;;;;5126269;28;19920;-68
2021/12/21 11:24:48;;;;;;;;;;;2.40;99.90;;;;;;5124440;28;20203;-68
2021/12/21 11:27:15;;;;;;;;;;;2.30;99.90;;;;;;5123645;28;19941;-69
2021/12/21 11:29:42;;;;;;;;;;;2.20;99.90;;;;;;5104936;28;20219;-69
2021/12/21 11:32:10;;;;;;;;;;;2.30;99.90;;;;;;5104901;28;19920;-68
2021/12/21 11:34:56;;;;;;;;;;;2.30;99.90;;;;;;5104430;28;19920;-68
2021/12/21 11:37:27;;;;;;;;;;;2.30;99.90;;;;;;5105298;28;19927;-69
2021/12/21 11:39:53;;;;;;;;;;;2.30;99.90;;;;;;5105317;28;19924;-68
2021/12/21 11:42:23;;;;;;;;;;;2.30;99.90;;;;;;5105370;28;19920;-69
2021/12/21 11:44:51;;;;;;;;;;;2.30;99.90;;;;;;5103885;28;19920;-69
2021/12/21 11:47:20;;;;;;;;;;;2.40;99.90;;;;;;5104617;28;19920;-69
2021/12/21 11:49:48;;;;;;;;;;;2.50;99.90;;;;;;5116030;28;20021;-69
2021/12/21 11:52:16;;;;;;;;;;;2.60;99.90;;;;;;5125343;28;19919;-69
2021/12/21 11:54:45;;;;;;;;;;;2.70;99.90;;;;;;5124562;28;20174;-68
2021/12/21 11:57:12;;;;;;;;;;;2.80;99.90;;;;;;5124585;28;19926;-68
2021/12/21 11:59:39;;;;;;;;;;;2.80;99.90;;;;;;5125442;28;19954;-69
2021/12/21 12:02:07;;;;;;;;;;;3.00;99.90;;;;;;5125676;28;20118;-68
2021/12/21 12:04:35;;;;;;;;;;;3.00;99.90;;;;;;5124845;28;19920;-69
2021/12/21 12:07:13;;;;;;;;;;;3.10;99.90;;;;;;5125227;28;19920;-67
2021/12/21 12:09:39;;;;;;;;;;;3.30;99.90;;;;;;5125102;28;19920;-69
2021/12/21 12:12:08;;;;;;;;;;;3.40;99.90;;;;;;5124534;28;19943;-68
2021/12/21 12:14:37;;;;;;;;;;;3.40;99.90;;;;;;5124664;28;19927;-68
2021/12/21 12:17:10;;;;;;;;;;;3.50;99.90;;;;;;5125182;28;19919;-69
2021/12/21 12:19:38;;;;;;;;;;;3.50;99.90;;;;;;5124718;28;20233;-68
2021/12/21 12:22:05;;;;;;;;;;;3.50;99.90;;;;;;5125011;28;19920;-68
2021/12/21 12:24:35;;;;;;;;;;;3.60;99.90;;;;;;5123883;28;19927;-68
2021/12/21 12:27:03;;;;;;;;;;;3.60;99.90;;;;;;5124611;28;19927;-68
2021/12/21 12:29:41;;;;;;;;;;;3.80;99.90;;;;;;5125048;28;19991;-69
2021/12/21 12:32:08;;;;;;;;;;;3.80;99.90;;;;;;5125030;28;20111;-70
2021/12/21 12:34:36;;;;;;;;;;;3.90;99.90;;;;;;5124101;28;19927;-69
2021/12/21 12:37:14;;;;;;;;;;;3.90;99.90;;;;;;5124699;28;19919;-69
2021/12/21 12:39:41;;;;;;;;;;;3.90;99.90;;;;;;5124583;28;20230;-69
2021/12/21 12:42:09;;;;;;;;;;;4.00;99.90;;;;;;5124691;28;19920;-69
2021/12/21 12:44:38;;;;;;;;;;;4.10;99.90;;;;;;5124087;28;19995;-69
2021/12/21 12:47:05;;;;;;;;;;;4.10;99.90;;;;;;5124531;28;19919;-70
2021/12/21 12:49:34;;;;;;;;;;;4.10;99.90;;;;;;5124621;28;19926;-70
2021/12/21 12:52:05;;;;;;;;;;;4.10;99.90;;;;;;5124221;28;19920;-69
2021/12/21 12:54:43;;;;;;;;;;;4.20;99.90;;;;;;5123218;28;20389;-69
2021/12/21 12:57:10;;;;;;;;;;;4.10;99.90;;;;;;5124479;28;19920;-69
2021/12/21 12:59:38;;;;;;;;;;;4.00;99.90;;;;;;5124260;28;19959;-69
2021/12/21 13:02:07;;;;;;;;;;;4.00;99.90;;;;;;5124428;28;19926;-69
2021/12/21 13:04:37;;;;;;;;;;;3.90;99.90;;;;;;5123698;28;19926;-69
2021/12/21 13:07:04;;;;;;;;;;;3.70;99.90;;;;;;5124282;28;19950;-69
2021/12/21 13:09:32;;;;;;;;;;;3.70;99.90;;;;;;5124160;28;19919;-69
2021/12/21 13:12:00;;;;;;;;;;;3.60;99.90;;;;;;5124375;28;20209;-69
2021/12/21 13:14:26;;;;;;;;;;;3.60;99.90;;;;;;5123736;28;19926;-69
2021/12/21 13:16:57;;;;;;;;;;;3.50;99.90;;;;;;5124174;28;20112;-70
2021/12/21 13:19:26;;;;;;;;;;;3.40;99.90;;;;;;5116644;28;20028;-69
2021/12/21 13:21:56;;;;;;;;;;;3.10;99.90;;;;;;5105273;28;19920;-69
2021/12/21 13:24:23;;;;;;;;;;;2.90;99.90;;;;;;5123459;28;19920;-69
2021/12/21 13:26:51;;;;;;;;;;;2.70;99.90;;;;;;5123559;28;19920;-69
2021/12/21 13:29:19;;;;;;;;;;;2.40;99.90;;;;;;5123802;28;19920;-70
2021/12/21 13:31:47;;;;;;;;;;;2.20;99.90;;;;;;5124122;28;19994;-69
2021/12/21 13:34:16;;;;;;;;;;;2.10;99.90;;;;;;5123546;28;19969;-69
2021/12/21 13:36:45;;;;;;;;;;;1.90;99.90;;;;;;5128083;28;19920;-69
2021/12/21 13:39:16;;;;;;;;;;;1.80;99.90;;;;;;5128129;28;19926;-69
2021/12/21 13:41:45;;;;;;;;;;;1.60;99.90;;;;;;5127937;28;19919;-70
2021/12/21 13:44:11;;;;;;;;;;;1.50;99.90;;;;;;5127130;28;19920;-69
2021/12/21 13:46:38;;;;;;;;;;;1.50;99.90;;;;;;5127733;28;20225;-69
2021/12/21 13:49:04;;;;;;;;;;;1.40;99.90;;;;;;5127503;28;19920;-68
2021/12/21 13:51:33;;;;;;;;;;;1.30;99.90;;;;;;5127714;28;19920;-69
2021/12/21 13:53:59;;;;;;;;;;;1.30;99.90;;;;;;5127168;28;20291;-69
2021/12/21 13:56:26;;;;;;;;;;;1.20;99.90;;;;;;5127886;28;19926;-69
2021/12/21 13:58:54;;;;;;;;;;;1.20;99.90;;;;;;5128051;28;19926;-69
2021/12/21 14:01:21;;;;;;;;;;;1.20;99.90;;;;;;5128040;28;19920;-68
2021/12/21 14:03:52;;;;;;;;;;;1.10;99.90;;;;;;5127375;28;19927;-69
2021/12/21 14:06:22;;;;;;;;;;;1.00;99.90;;;;;;5121614;28;19990;-70
2021/12/21 14:08:51;;;;;;;;;;;0.90;99.90;;;;;;5122247;28;19924;-69
2021/12/21 14:11:18;;;;;;;;;;;0.90;99.90;;;;;;5127544;28;19920;-70
2021/12/21 14:13:46;;;;;;;;;;;0.90;99.90;;;;;;5126932;28;20199;-70
2021/12/21 14:16:14;;;;;;;;;;;0.80;99.90;;;;;;5127179;28;19957;-70
2021/12/21 14:18:41;;;;;;;;;;;0.80;99.90;;;;;;5127286;28;19927;-70
2021/12/21 14:21:10;;;;;;;;;;;0.80;99.90;;;;;;5127310;28;19965;-69
2021/12/21 14:23:37;;;;;;;;;;;0.80;99.90;;;;;;5122740;28;19920;-69
2021/12/21 14:26:10;;;;;;;;;;;0.80;99.90;;;;;;5119020;28;19927;-70
2021/12/21 14:28:50;;;;;;;;;;;0.80;99.90;;;;;;5127273;28;19920;-70
2021/12/21 14:31:21;;;;;;;;;;;0.80;99.90;;;;;;5127093;28;19920;-70
2021/12/21 14:33:49;;;;;;;;;;;0.70;99.90;;;;;;5126763;28;19920;-69
2021/12/21 14:36:16;;;;;;;;;;;0.70;99.90;;;;;;5127151;28;19920;-69
2021/12/21 14:38:52;;;;;;;;;;;0.70;99.90;;;;;;5127215;28;19926;-69
2021/12/21 14:41:21;;;;;;;;;;;0.70;99.90;;;;;;5126139;28;20127;-69
2021/12/21 14:43:48;;;;;;;;;;;0.70;99.90;;;;;;5126537;28;19927;-70
2021/12/21 14:46:18;;;;;;;;;;;0.70;99.90;;;;;;5125067;28;20207;-70
2021/12/21 14:48:47;;;;;;;;;;;0.70;99.90;;;;;;5126655;28;19942;-70
2021/12/21 14:51:14;;;;;;;;;;;0.60;99.90;;;;;;5126189;28;19920;-70
2021/12/21 14:53:49;;;;;;;;;;;0.60;99.90;;;;;;5125659;28;19954;-70
2021/12/21 14:56:27;;;;;;;;;;;0.60;99.90;;;;;;5126714;28;19919;-70
2021/12/21 14:58:58;;;;;;;;;;;0.50;99.90;;;;;;5126582;28;19919;-69
2021/12/21 15:01:24;;;;;;;;;;;0.40;99.90;;;;;;5125390;28;19926;-69
2021/12/21 15:03:51;;;;;;;;;;;0.40;99.90;;;;;;5124420;28;19920;-70
2021/12/21 15:06:18;;;;;;;;;;;0.40;99.90;;;;;;5124599;28;19987;-69